»·PEaware :: DAL258 KRNO-KSBP

DAL258 :: KRNO-KSBP

FLIGHT INFORMATION

Flight Status: Arrived
Operator:
Delta Air Lines
More flights by this operator :: More flights under this callsign
Pilot: Brad M. (22842)
Aircraft: BOEING 757-200
(B752)
More flights by this aircraft type
Origin: KRNO Reno/Tahoe Intl
United States
Destination: KSBP San Luis Co Regl
United States
More flights between these airports :: More routes between these airports
Route: +ZEFFR6 DARBI PRB
File this flight plan on PilotEdge
Remarks:
Altitude:
(Current/Filed)
25,000ft
Speed:
(Current/Filed)
400kts
Departed: 07-Apr-19 04:51 PM
Arrived: 07-Apr-19 05:43 PM
Distance/Time
Traveled:
259nm/0:52
Distance/Time
To Go:
Arrived

Flight Plot

Page will automatically refresh every two minutes.

Flight plan parsing failed; only flown route is shown


Map Options




Map Legend


Flown Route
Filed Route
Departure Airport
Arrival Airport
Navaid (VOR, NDB)
Fix

Horizontal Profiles

Position Reports

Time Latitude Longitude Heading Altitude Ground
Speed
07-Apr-19 16:30 39.507461 -119.773134 180 4421ft 0kts
07-Apr-19 16:31 39.507461 -119.773134 180 4421ft 0kts
07-Apr-19 16:32 39.507461 -119.773134 180 4421ft 0kts
07-Apr-19 16:33 39.507461 -119.773134 180 4421ft 0kts
07-Apr-19 16:34 39.507461 -119.773134 180 4421ft 0kts
07-Apr-19 16:35 39.507461 -119.773134 180 4421ft 0kts
07-Apr-19 16:36 39.507461 -119.773134 180 4420ft 0kts
07-Apr-19 16:37 39.507461 -119.773134 180 4420ft 0kts
07-Apr-19 16:38 39.507461 -119.773134 180 4420ft 0kts
07-Apr-19 16:39 39.507461 -119.773134 180 4420ft 0kts
07-Apr-19 16:40 39.507461 -119.773134 180 4420ft 0kts
07-Apr-19 16:41 39.507461 -119.773134 180 4420ft 0kts
07-Apr-19 16:42 39.507696 -119.773129 180 4421ft 0kts
07-Apr-19 16:43 39.508021 -119.773523 85 4420ft 1kts
07-Apr-19 16:44 39.508020 -119.773575 89 4420ft 0kts
07-Apr-19 16:45 39.508019 -119.772970 91 4420ft 13kts
07-Apr-19 16:46 39.509720 -119.771495 0 4420ft 10kts
07-Apr-19 16:47 39.513043 -119.771468 1 4420ft 9kts
07-Apr-19 16:48 39.513501 -119.769231 177 4420ft 0kts
07-Apr-19 16:49 39.513396 -119.769230 180 4420ft 0kts
07-Apr-19 16:50 39.505897 -119.769238 180 4421ft 116kts
07-Apr-19 16:51 39.454926 -119.767684 182 6414ft 211kts
07-Apr-19 16:52 39.393827 -119.769514 183 7992ft 243kts
07-Apr-19 16:53 39.321552 -119.769906 182 9574ft 273kts
07-Apr-19 16:54 39.238194 -119.766765 182 10270ft 340kts
07-Apr-19 16:55 39.142101 -119.763004 184 12415ft 351kts
07-Apr-19 16:57 39.042799 -119.759282 184 14382ft 361kts
07-Apr-19 16:58 38.941334 -119.755467 184 16204ft 371kts
07-Apr-19 16:59 38.836620 -119.751546 184 17935ft 379kts
07-Apr-19 17:00 38.729632 -119.747559 184 19489ft 390kts
07-Apr-19 17:01 38.620094 -119.743476 185 20996ft 400kts
07-Apr-19 17:02 38.507424 -119.739293 185 22485ft 410kts
07-Apr-19 17:03 38.392103 -119.735020 185 23914ft 419kts
07-Apr-19 17:04 38.276413 -119.740722 201 25375ft 408kts
07-Apr-19 17:05 38.167925 -119.777978 202 25323ft 400kts
07-Apr-19 17:06 38.060551 -119.815646 202 25322ft 400kts
07-Apr-19 17:07 37.952983 -119.853348 202 25322ft 400kts
07-Apr-19 17:08 37.849643 -119.889469 202 25321ft 400kts
07-Apr-19 17:09 37.741968 -119.927007 202 25323ft 404kts
07-Apr-19 17:10 37.631682 -119.965317 202 25320ft 412kts
07-Apr-19 17:11 37.520949 -120.003666 202 25321ft 412kts
07-Apr-19 17:12 37.410580 -120.041777 202 25308ft 410kts
07-Apr-19 17:13 37.300290 -120.079737 202 25296ft 410kts
07-Apr-19 17:14 37.189848 -120.117643 202 25266ft 411kts
07-Apr-19 17:15 37.079200 -120.155506 201 25246ft 412kts
07-Apr-19 17:16 36.969190 -120.193004 201 24366ft 402kts
07-Apr-19 17:17 36.868544 -120.227222 201 22721ft 381kts
07-Apr-19 17:17 36.784436 -120.255780 201 21384ft 372kts
07-Apr-19 17:18 36.685280 -120.289344 200 19827ft 365kts
07-Apr-19 17:20 36.572372 -120.327454 200 18066ft 356kts
07-Apr-19 17:21 36.477444 -120.359407 200 16538ft 353kts
07-Apr-19 17:21 36.398717 -120.385840 199 15290ft 349kts
07-Apr-19 17:22 36.305438 -120.417087 199 13837ft 344kts
07-Apr-19 17:24 36.198078 -120.452953 199 12190ft 336kts
07-Apr-19 17:24 36.123112 -120.477961 198 11059ft 336kts
07-Apr-19 17:25 36.034138 -120.507513 197 10169ft 305kts
07-Apr-19 17:26 35.955164 -120.533756 196 9138ft 293kts
07-Apr-19 17:27 35.880721 -120.558394 196 8059ft 286kts
07-Apr-19 17:28 35.804002 -120.583751 196 7998ft 285kts
07-Apr-19 17:29 35.727314 -120.609042 196 7999ft 285kts
07-Apr-19 17:30 35.653961 -120.633055 196 8000ft 263kts
07-Apr-19 17:31 35.586515 -120.654444 195 7999ft 263kts
07-Apr-19 17:32 35.516848 -120.676494 195 8001ft 253kts
07-Apr-19 17:33 35.448776 -120.684897 146 7682ft 247kts
07-Apr-19 17:34 35.395220 -120.638707 142 6554ft 232kts
07-Apr-19 17:35 35.343105 -120.593455 142 5577ft 228kts
07-Apr-19 17:36 35.292523 -120.549367 144 4636ft 214kts
07-Apr-19 17:37 35.241254 -120.530390 176 3434ft 180kts
07-Apr-19 17:38 35.195569 -120.535177 223 2297ft 148kts
07-Apr-19 17:39 35.200112 -120.575611 303 1442ft 126kts
07-Apr-19 17:40 35.219873 -120.610908 308 793ft 123kts
07-Apr-19 17:41 35.238162 -120.642467 305 187ft 54kts
07-Apr-19 17:42 35.241462 -120.646496 100 187ft 5kts
07-Apr-19 17:43 35.239912 -120.643634 124 187ft 13kts
07-Apr-19 17:44 35.238542 -120.641434 123 187ft 6kts
07-Apr-19 17:45 35.237481 -120.639346 111 187ft 8kts
07-Apr-19 17:46 35.237664 -120.637468 357 187ft 3kts
07-Apr-19 17:47 35.237934 -120.637474 359 187ft 0kts
07-Apr-19 17:48 35.237934 -120.637474 359 187ft 0kts
07-Apr-19 17:49 35.237934 -120.637474 359 187ft 0kts
07-Apr-19 17:50 35.237934 -120.637474 359 187ft 0kts
07-Apr-19 17:51 35.237934 -120.637474 359 187ft 0kts
07-Apr-19 17:52 35.237934 -120.637474 359 187ft 0kts
07-Apr-19 17:53 35.237934 -120.637474 359 187ft 0kts

Navigation Log

Ident Type
Flight plan parsing failed, navigation log unavailable